createdAt,value
2022-11-16T00:02:14.545Z,64.90
2022-11-16T00:04:41.727Z,64.90
2022-11-16T00:07:08.814Z,64.90
2022-11-16T00:09:35.521Z,64.80
2022-11-16T00:12:04.945Z,64.70
2022-11-16T00:14:34.057Z,64.80
2022-11-16T00:17:01.471Z,64.70
2022-11-16T00:19:28.816Z,64.60
2022-11-16T00:21:55.820Z,64.70
2022-11-16T00:24:23.711Z,64.70
2022-11-16T00:26:52.684Z,64.60
2022-11-16T00:29:22.150Z,64.10
2022-11-16T00:31:49.732Z,64.60
2022-11-16T00:34:17.057Z,64.70
2022-11-16T00:36:44.227Z,64.70
2022-11-16T00:39:14.927Z,64.50
2022-11-16T00:41:42.388Z,64.50
2022-11-16T00:44:09.436Z,64.50
2022-11-16T00:46:36.177Z,64.50
2022-11-16T00:49:03.157Z,64.50
2022-11-16T00:51:29.793Z,65.10
2022-11-16T00:53:56.385Z,64.50
2022-11-16T00:56:23.343Z,64.50
2022-11-16T00:58:50.329Z,64.60
2022-11-16T01:01:17.624Z,64.40
2022-11-16T01:03:44.440Z,64.40
2022-11-16T01:06:14.003Z,64.40
2022-11-16T01:08:41.761Z,64.40
2022-11-16T01:11:27.820Z,64.30
2022-11-16T01:13:55.543Z,64.30
2022-11-16T01:16:23.836Z,64.30
2022-11-16T01:18:53.642Z,64.30
2022-11-16T01:21:22.181Z,64.20
2022-11-16T01:23:48.931Z,64.30
2022-11-16T01:26:15.635Z,64.30
2022-11-16T01:28:42.511Z,64.20
2022-11-16T01:31:10.375Z,64.20
2022-11-16T01:33:37.603Z,64.20
2022-11-16T01:36:14.205Z,64.20
2022-11-16T01:38:43.000Z,64.30
2022-11-16T01:41:14.036Z,64.30
2022-11-16T01:44:01.425Z,64.20
2022-11-16T01:46:29.498Z,64.30
2022-11-16T01:49:12.877Z,64.30
2022-11-16T01:51:42.479Z,64.20
2022-11-16T01:54:11.828Z,64.20
2022-11-16T01:56:39.861Z,64.20
2022-11-16T01:59:06.717Z,64.20
2022-11-16T02:01:33.459Z,64.20
2022-11-16T02:04:00.102Z,64.10
2022-11-16T02:06:26.639Z,64.10
2022-11-16T02:09:34.443Z,64.10
2022-11-16T02:12:30.456Z,64.20
2022-11-16T02:14:59.759Z,64.20
2022-11-16T02:17:43.501Z,64.10
2022-11-16T02:20:24.853Z,64.20
2022-11-16T02:23:14.838Z,64.20
2022-11-16T02:26:19.647Z,64.20
2022-11-16T02:28:46.245Z,64.10
2022-11-16T02:31:20.019Z,64.20
2022-11-16T02:33:50.159Z,64.20
2022-11-16T02:36:22.157Z,64.20
2022-11-16T02:38:59.509Z,64.20
2022-11-16T02:41:28.407Z,64.10
2022-11-16T02:44:01.450Z,64.10
2022-11-16T02:46:31.948Z,64.00
2022-11-16T02:49:02.336Z,64.00
2022-11-16T02:51:30.274Z,64.00
2022-11-16T02:54:09.469Z,64.00
2022-11-16T02:56:50.501Z,64.00
2022-11-16T02:59:17.837Z,64.00
2022-11-16T03:01:53.239Z,64.00
2022-11-16T03:04:36.153Z,64.00
2022-11-16T03:07:05.673Z,64.00
2022-11-16T03:09:35.444Z,64.00
2022-11-16T03:12:05.990Z,64.00
2022-11-16T03:14:38.561Z,64.00
2022-11-16T03:17:11.094Z,64.00
2022-11-16T03:19:42.355Z,64.00
2022-11-16T03:22:24.183Z,64.00
2022-11-16T03:24:51.124Z,64.10
2022-11-16T03:27:29.935Z,63.90
2022-11-16T03:30:13.955Z,64.00
2022-11-16T03:32:53.783Z,64.00
2022-11-16T03:35:26.555Z,64.00
2022-11-16T03:37:56.647Z,64.00
2022-11-16T03:40:26.512Z,63.90
2022-11-16T03:42:54.076Z,64.00
2022-11-16T03:45:20.959Z,63.90
2022-11-16T03:47:47.811Z,64.30
2022-11-16T03:50:14.719Z,63.90
2022-11-16T03:52:41.358Z,64.00
2022-11-16T03:55:08.396Z,63.90
2022-11-16T03:57:34.990Z,63.90
2022-11-16T04:00:01.839Z,63.90
2022-11-16T04:02:28.459Z,63.90
2022-11-16T04:05:13.536Z,63.90
2022-11-16T04:07:58.887Z,64.00
2022-11-16T04:10:44.196Z,64.00
2022-11-16T04:13:31.692Z,63.90
2022-11-16T04:16:17.151Z,63.90
2022-11-16T04:19:02.620Z,63.30
2022-11-16T04:21:53.743Z,64.00
2022-11-16T04:24:23.826Z,63.90
2022-11-16T04:27:14.141Z,64.00
2022-11-16T04:29:41.599Z,64.00
2022-11-16T04:32:27.821Z,64.00
2022-11-16T04:35:13.434Z,64.10
2022-11-16T04:37:49.070Z,64.00
2022-11-16T04:40:21.055Z,64.10
2022-11-16T04:42:56.164Z,64.10
2022-11-16T04:45:42.430Z,64.10
2022-11-16T04:48:09.785Z,64.10
2022-11-16T04:50:38.214Z,64.10
2022-11-16T04:53:06.038Z,64.20
2022-11-16T04:55:33.279Z,64.10
2022-11-16T04:58:00.423Z,64.20
2022-11-16T05:00:27.809Z,64.10
2022-11-16T05:02:59.719Z,64.10
2022-11-16T05:05:27.798Z,64.10
2022-11-16T05:07:54.436Z,64.00
2022-11-16T05:10:21.091Z,64.10
2022-11-16T05:12:47.689Z,64.10
2022-11-16T05:15:14.335Z,64.10
2022-11-16T05:17:40.940Z,64.10
2022-11-16T05:20:28.286Z,64.10
2022-11-16T05:22:56.640Z,64.00
2022-11-16T05:25:23.296Z,64.00
2022-11-16T05:27:49.934Z,64.10
2022-11-16T05:30:16.766Z,64.10
2022-11-16T05:32:43.633Z,64.00
2022-11-16T05:35:10.369Z,64.00
2022-11-16T05:37:37.072Z,64.10
2022-11-16T05:40:04.127Z,64.40
2022-11-16T05:42:30.711Z,64.50
2022-11-16T05:44:57.306Z,64.40
2022-11-16T05:47:23.939Z,64.40
2022-11-16T05:49:50.530Z,64.40
2022-11-16T05:52:17.169Z,64.40
2022-11-16T05:54:43.757Z,64.30
2022-11-16T05:57:10.391Z,64.20
2022-11-16T05:59:36.976Z,64.20
2022-11-16T06:02:04.695Z,64.20
2022-11-16T06:04:32.316Z,64.20
2022-11-16T06:06:59.066Z,64.20
2022-11-16T06:09:25.737Z,64.10
2022-11-16T06:11:52.593Z,64.10
2022-11-16T06:14:19.187Z,64.20
2022-11-16T06:16:45.765Z,64.10
2022-11-16T06:19:12.338Z,64.20
2022-11-16T06:21:39.044Z,64.00
2022-11-16T06:24:08.839Z,64.00
2022-11-16T06:26:35.799Z,64.00
2022-11-16T06:29:03.425Z,64.00
2022-11-16T06:31:30.686Z,64.00
2022-11-16T06:33:57.322Z,64.00
2022-11-16T06:36:23.923Z,64.00
2022-11-16T06:38:50.861Z,63.90
2022-11-16T06:41:17.514Z,63.90
2022-11-16T06:43:44.201Z,63.90
2022-11-16T06:46:10.824Z,63.90
2022-11-16T06:48:37.692Z,63.80
2022-11-16T06:51:04.512Z,63.90
2022-11-16T06:53:31.087Z,64.00
2022-11-16T06:56:05.156Z,64.10
2022-11-16T06:58:32.934Z,63.90
2022-11-16T07:01:11.446Z,64.00
2022-11-16T07:03:39.067Z,64.00
2022-11-16T07:06:10.734Z,64.10
2022-11-16T07:08:37.823Z,63.90
2022-11-16T07:11:06.091Z,63.90
2022-11-16T07:13:33.782Z,63.90
2022-11-16T07:16:02.254Z,63.90
2022-11-16T07:18:28.916Z,64.00
2022-11-16T07:20:55.489Z,63.30
2022-11-16T07:23:22.381Z,63.90
2022-11-16T07:25:48.951Z,63.90
2022-11-16T07:28:15.726Z,63.90
2022-11-16T07:30:42.491Z,63.90
2022-11-16T07:33:09.073Z,64.00
2022-11-16T07:35:35.766Z,64.60
2022-11-16T07:38:02.331Z,63.90
2022-11-16T07:40:28.974Z,63.30
2022-11-16T07:42:58.488Z,63.90
2022-11-16T07:45:25.092Z,63.90
2022-11-16T07:47:53.321Z,63.80
2022-11-16T07:50:20.000Z,63.30
2022-11-16T07:52:46.723Z,63.90
2022-11-16T07:55:13.478Z,64.10
2022-11-16T07:57:40.216Z,63.90
2022-11-16T08:00:08.232Z,63.90
2022-11-16T08:02:34.832Z,64.00
2022-11-16T08:05:01.428Z,63.90
2022-11-16T08:07:28.017Z,64.00
2022-11-16T08:09:55.362Z,64.00
2022-11-16T08:12:21.996Z,63.90
2022-11-16T08:14:48.643Z,63.90
2022-11-16T08:17:15.289Z,64.00
2022-11-16T08:19:42.316Z,64.00
2022-11-16T08:22:09.270Z,64.10
2022-11-16T08:24:36.054Z,64.00
2022-11-16T08:27:02.917Z,64.10
2022-11-16T08:29:29.556Z,64.10
2022-11-16T08:31:56.157Z,64.00
2022-11-16T08:34:23.009Z,64.10
2022-11-16T08:36:49.978Z,64.10
2022-11-16T08:39:16.583Z,64.10
2022-11-16T08:41:44.222Z,64.10
2022-11-16T08:44:11.335Z,64.10
2022-11-16T08:46:38.027Z,64.10
2022-11-16T08:49:04.632Z,64.10
2022-11-16T08:51:31.208Z,64.10
2022-11-16T08:53:58.475Z,64.00
2022-11-16T08:56:27.098Z,64.10
2022-11-16T08:58:59.110Z,64.10
2022-11-16T09:01:29.392Z,63.50
2022-11-16T09:03:56.153Z,64.10
2022-11-16T09:06:24.557Z,64.10
2022-11-16T09:08:51.799Z,64.10
2022-11-16T09:11:21.804Z,64.10
2022-11-16T09:13:50.111Z,64.10
2022-11-16T09:16:17.808Z,64.10
2022-11-16T09:18:48.205Z,64.00
2022-11-16T09:21:19.003Z,64.20
2022-11-16T09:23:46.370Z,64.10
2022-11-16T09:26:13.689Z,64.30
2022-11-16T09:28:40.300Z,64.20
2022-11-16T09:31:06.876Z,64.10
2022-11-16T09:33:34.197Z,64.20
2022-11-16T09:36:02.538Z,64.20
2022-11-16T09:38:46.566Z,64.10
2022-11-16T09:41:15.673Z,63.50
2022-11-16T09:44:12.619Z,64.10
2022-11-16T09:46:47.886Z,64.10
2022-11-16T09:49:28.731Z,64.10
2022-11-16T09:52:00.011Z,64.10
2022-11-16T09:54:31.296Z,64.10
2022-11-16T09:57:02.035Z,64.20
2022-11-16T09:59:41.711Z,64.10
2022-11-16T10:02:17.006Z,63.50
2022-11-16T10:04:56.723Z,64.10
2022-11-16T10:07:31.462Z,64.10
2022-11-16T10:09:58.173Z,64.20
2022-11-16T10:13:02.445Z,64.10
2022-11-16T10:15:50.424Z,64.20
2022-11-16T10:18:42.312Z,64.20
2022-11-16T10:21:35.001Z,64.20
2022-11-16T10:24:08.244Z,64.20
2022-11-16T10:26:37.806Z,64.20
2022-11-16T10:29:22.977Z,64.20
2022-11-16T10:32:01.481Z,64.10
2022-11-16T10:34:41.371Z,64.20
2022-11-16T10:37:12.977Z,64.20
2022-11-16T10:39:41.029Z,64.20
2022-11-16T10:42:14.004Z,64.20
2022-11-16T10:44:45.812Z,64.20
2022-11-16T10:47:22.425Z,64.30
2022-11-16T10:49:59.556Z,64.30
2022-11-16T10:52:26.507Z,64.40
2022-11-16T10:54:53.293Z,66.70
2022-11-16T10:57:20.114Z,64.50
2022-11-16T10:59:49.971Z,64.60
2022-11-16T11:02:31.192Z,64.60
2022-11-16T11:05:02.993Z,64.60
2022-11-16T11:07:40.289Z,64.50
2022-11-16T11:10:28.121Z,64.50
2022-11-16T11:13:22.873Z,64.50
2022-11-16T11:15:51.348Z,64.60
2022-11-16T11:18:20.796Z,64.60
2022-11-16T11:21:10.068Z,64.60
2022-11-16T11:23:44.359Z,64.50
2022-11-16T11:26:23.898Z,64.50
2022-11-16T11:28:53.794Z,63.80
2022-11-16T11:31:57.737Z,64.50
2022-11-16T11:34:29.720Z,64.50
2022-11-16T11:37:02.785Z,65.20
2022-11-16T11:39:37.118Z,64.50
2022-11-16T11:42:21.167Z,64.40
2022-11-16T11:45:02.125Z,65.20
2022-11-16T11:47:59.785Z,64.40
2022-11-16T11:50:51.107Z,64.50
2022-11-16T11:53:49.644Z,64.50
2022-11-16T11:56:17.573Z,64.40
2022-11-16T11:58:45.606Z,64.40
2022-11-16T12:01:25.786Z,64.40
2022-11-16T12:04:16.312Z,64.50
2022-11-16T12:06:48.327Z,64.50
2022-11-16T12:09:36.942Z,63.90
2022-11-16T12:12:15.547Z,64.50
2022-11-16T12:15:02.180Z,64.40
2022-11-16T12:17:49.900Z,64.50
2022-11-16T12:20:36.515Z,64.50
2022-11-16T12:23:29.401Z,64.40
2022-11-16T12:25:55.960Z,64.40
2022-11-16T12:28:27.668Z,64.50
2022-11-16T12:31:11.215Z,64.50
2022-11-16T12:33:51.476Z,64.50
2022-11-16T12:36:37.748Z,64.40
2022-11-16T12:39:28.243Z,64.60
2022-11-16T12:42:18.446Z,64.70
2022-11-16T12:45:04.084Z,64.70
2022-11-16T12:47:49.400Z,64.70
2022-11-16T12:50:46.919Z,64.70
2022-11-16T12:53:19.291Z,64.10
2022-11-16T12:56:28.167Z,64.70
2022-11-16T12:59:15.405Z,64.80
2022-11-16T13:01:55.039Z,64.80
2022-11-16T13:04:33.787Z,64.80
2022-11-16T13:07:11.379Z,64.90
2022-11-16T13:09:42.927Z,64.90
2022-11-16T13:12:15.256Z,64.90
2022-11-16T13:14:47.836Z,64.90
2022-11-16T13:17:20.653Z,64.70
2022-11-16T13:20:15.057Z,65.00
2022-11-16T13:22:51.422Z,64.80
2022-11-16T13:25:26.488Z,64.80
2022-11-16T13:28:03.908Z,64.80
2022-11-16T13:30:46.506Z,64.80
2022-11-16T13:33:40.725Z,64.90
2022-11-16T13:36:43.336Z,64.90
2022-11-16T13:39:21.472Z,65.00
2022-11-16T13:42:07.820Z,65.00
2022-11-16T13:44:34.957Z,65.00
2022-11-16T13:47:04.741Z,65.00
2022-11-16T13:49:43.308Z,65.10
2022-11-16T13:52:48.273Z,65.10
2022-11-16T13:55:14.897Z,65.10
2022-11-16T13:57:51.015Z,65.30
2022-11-16T14:00:23.323Z,64.70
2022-11-16T14:03:15.859Z,65.30
2022-11-16T14:05:45.384Z,65.40
2022-11-16T14:08:24.161Z,65.50
2022-11-16T14:10:50.772Z,65.40
2022-11-16T14:13:37.073Z,65.50
2022-11-16T14:16:21.619Z,65.50
2022-11-16T14:19:00.446Z,65.50
2022-11-16T14:21:58.704Z,65.40
2022-11-16T14:24:40.862Z,65.60
2022-11-16T14:27:16.907Z,65.50
2022-11-16T14:29:46.433Z,64.80
2022-11-16T14:32:25.397Z,65.50
2022-11-16T14:34:54.722Z,65.40
2022-11-16T14:37:30.255Z,65.40
2022-11-16T14:40:06.263Z,65.40
2022-11-16T14:43:14.924Z,65.40
2022-11-16T14:45:38.120Z,65.50
2022-11-16T14:48:14.655Z,65.40
2022-11-16T14:50:44.877Z,65.40
2022-11-16T14:53:16.781Z,65.40
2022-11-16T14:55:45.892Z,65.80
2022-11-16T14:58:22.209Z,65.40
2022-11-16T15:01:04.432Z,65.30
2022-11-16T15:03:52.701Z,65.30
2022-11-16T15:06:20.071Z,65.30
2022-11-16T15:08:56.409Z,65.30
2022-11-16T15:11:49.630Z,65.20
2022-11-16T15:14:26.661Z,65.30
2022-11-16T15:16:56.057Z,65.20
2022-11-16T15:19:24.051Z,65.20
2022-11-16T15:21:52.897Z,65.20
2022-11-16T15:24:30.924Z,65.10
2022-11-16T15:27:08.137Z,65.10
2022-11-16T15:29:35.280Z,65.10
2022-11-16T15:32:01.886Z,65.10
2022-11-16T15:34:28.578Z,65.10
2022-11-16T15:36:55.168Z,65.10
2022-11-16T15:39:30.231Z,65.20
2022-11-16T15:42:03.248Z,65.20
2022-11-16T15:44:31.777Z,65.10
2022-11-16T15:46:58.731Z,65.30
2022-11-16T15:49:36.947Z,64.90
2022-11-16T15:52:04.672Z,65.50
2022-11-16T15:54:52.584Z,65.50
2022-11-16T15:57:21.010Z,65.50
2022-11-16T15:59:57.456Z,65.50
2022-11-16T16:02:29.868Z,65.60
2022-11-16T16:04:56.973Z,65.60
2022-11-16T16:07:36.946Z,65.50
2022-11-16T16:10:18.641Z,64.90
2022-11-16T16:12:56.411Z,65.60
2022-11-16T16:15:33.613Z,65.60
2022-11-16T16:18:02.234Z,65.60
2022-11-16T16:20:31.080Z,64.90
2022-11-16T16:23:17.497Z,65.70
2022-11-16T16:25:50.129Z,65.70
2022-11-16T16:28:17.361Z,65.70
2022-11-16T16:30:43.954Z,65.70
2022-11-16T16:33:19.818Z,65.70
2022-11-16T16:35:49.982Z,65.70
2022-11-16T16:38:17.604Z,65.10
2022-11-16T16:40:44.406Z,65.00
2022-11-16T16:43:10.998Z,65.60
2022-11-16T16:45:41.318Z,65.80
2022-11-16T16:48:09.348Z,66.60
2022-11-16T16:50:36.405Z,65.80
2022-11-16T16:53:03.361Z,65.70
2022-11-16T16:55:34.293Z,65.60
2022-11-16T16:58:03.995Z,63.90
2022-11-16T17:00:30.653Z,65.60
2022-11-16T17:02:58.372Z,66.80
2022-11-16T17:05:26.327Z,65.80
2022-11-16T17:07:56.168Z,65.60
2022-11-16T17:10:23.123Z,65.70
2022-11-16T17:12:52.740Z,65.90
2022-11-16T17:15:19.741Z,65.90
2022-11-16T17:17:46.528Z,66.00
2022-11-16T17:20:13.286Z,66.00
2022-11-16T17:22:41.681Z,66.00
2022-11-16T17:25:09.227Z,66.10
2022-11-16T17:27:35.918Z,66.10
2022-11-16T17:30:03.221Z,66.10
2022-11-16T17:32:30.110Z,65.90
2022-11-16T17:34:56.723Z,66.00
2022-11-16T17:37:23.343Z,65.90
2022-11-16T17:39:49.934Z,65.90
2022-11-16T17:42:16.539Z,65.90
2022-11-16T17:44:43.138Z,66.00
2022-11-16T17:47:09.797Z,66.00
2022-11-16T17:49:36.440Z,66.10
2022-11-16T17:52:04.781Z,66.70
2022-11-16T17:54:31.676Z,66.00
2022-11-16T17:56:58.262Z,66.00
2022-11-16T17:59:29.157Z,66.10
2022-11-16T18:01:57.740Z,66.10
2022-11-16T18:04:24.412Z,66.10
2022-11-16T18:06:51.069Z,66.00
2022-11-16T18:09:18.625Z,65.30
2022-11-16T18:11:45.352Z,66.00
2022-11-16T18:14:11.996Z,66.00
2022-11-16T18:16:42.184Z,65.90
2022-11-16T18:19:09.796Z,65.30
2022-11-16T18:21:40.578Z,65.90
2022-11-16T18:24:07.983Z,65.80
2022-11-16T18:26:34.547Z,65.90
2022-11-16T18:29:01.148Z,65.70
2022-11-16T18:31:29.603Z,65.70
2022-11-16T18:33:56.212Z,65.80
2022-11-16T18:36:22.874Z,65.80
2022-11-16T18:38:49.823Z,65.30
2022-11-16T18:41:22.665Z,65.90
2022-11-16T18:43:50.977Z,65.90
2022-11-16T18:46:19.175Z,65.80
2022-11-16T18:48:46.684Z,65.60
2022-11-16T18:51:14.794Z,66.00
2022-11-16T18:53:41.920Z,65.80
2022-11-16T18:56:09.362Z,65.60
2022-11-16T18:58:54.875Z,65.20
2022-11-16T19:01:24.589Z,65.80
2022-11-16T19:03:52.892Z,65.80
2022-11-16T19:06:20.011Z,65.80
2022-11-16T19:08:55.056Z,65.30
2022-11-16T19:11:23.643Z,65.90
2022-11-16T19:13:54.588Z,66.00
2022-11-16T19:16:21.633Z,66.10
2022-11-16T19:18:48.322Z,66.30
2022-11-16T19:21:18.203Z,66.30
2022-11-16T19:23:47.101Z,66.30
2022-11-16T19:26:15.403Z,66.20
2022-11-16T19:28:43.816Z,66.50
2022-11-16T19:31:17.652Z,66.50
2022-11-16T19:33:45.094Z,66.60
2022-11-16T19:36:17.911Z,66.50
2022-11-16T19:38:46.378Z,66.60
2022-11-16T19:41:14.435Z,66.60
2022-11-16T19:43:41.596Z,66.60
2022-11-16T19:46:11.279Z,66.60
2022-11-16T19:48:38.300Z,66.70
2022-11-16T19:51:13.463Z,66.60
2022-11-16T19:53:40.320Z,66.60
2022-11-16T19:56:09.696Z,66.60
2022-11-16T19:58:39.145Z,66.70
2022-11-16T20:01:09.697Z,66.80
2022-11-16T20:03:40.360Z,66.80
2022-11-16T20:06:13.991Z,66.80
2022-11-16T20:08:45.983Z,66.80
2022-11-16T20:11:20.112Z,66.20
2022-11-16T20:13:48.211Z,66.80
2022-11-16T20:16:16.266Z,66.60
2022-11-16T20:18:43.771Z,66.50
2022-11-16T20:21:33.039Z,66.20
2022-11-16T20:24:06.155Z,66.20
2022-11-16T20:26:35.134Z,66.10
2022-11-16T20:29:01.841Z,65.40
2022-11-16T20:31:30.448Z,66.00
2022-11-16T20:33:59.246Z,66.10
2022-11-16T20:36:28.232Z,66.10
2022-11-16T20:38:56.021Z,66.00
2022-11-16T20:41:27.720Z,66.00
2022-11-16T20:43:56.697Z,65.80
2022-11-16T20:46:28.095Z,65.80
2022-11-16T20:48:56.948Z,65.90
2022-11-16T20:51:23.797Z,63.60
2022-11-16T20:53:50.775Z,65.80
2022-11-16T20:56:19.337Z,65.80
2022-11-16T20:58:46.543Z,65.80
2022-11-16T21:01:33.373Z,65.80
2022-11-16T21:04:05.258Z,65.90
2022-11-16T21:06:33.236Z,65.80
2022-11-16T21:09:00.470Z,66.00
2022-11-16T21:11:30.360Z,66.10
2022-11-16T21:14:15.599Z,66.00
2022-11-16T21:16:42.475Z,66.00
2022-11-16T21:19:09.372Z,65.90
2022-11-16T21:21:36.308Z,65.80
2022-11-16T21:24:02.995Z,66.30
2022-11-16T21:26:33.696Z,65.70
2022-11-16T21:29:01.366Z,65.60
2022-11-16T21:31:38.483Z,65.60
2022-11-16T21:34:07.147Z,65.60
2022-11-16T21:36:34.178Z,65.50
2022-11-16T21:39:00.962Z,65.50
2022-11-16T21:41:28.290Z,65.50
2022-11-16T21:43:55.109Z,65.50
2022-11-16T21:46:24.814Z,65.50
2022-11-16T21:48:52.778Z,65.40
2022-11-16T21:51:20.951Z,65.40
2022-11-16T21:53:47.798Z,65.50
2022-11-16T21:56:20.071Z,65.40
2022-11-16T21:58:49.762Z,64.90
2022-11-16T22:01:16.557Z,65.50
2022-11-16T22:03:44.469Z,65.40
2022-11-16T22:06:34.188Z,65.40
2022-11-16T22:09:01.344Z,65.40
2022-11-16T22:11:28.040Z,65.30
2022-11-16T22:13:54.787Z,65.30
2022-11-16T22:16:23.018Z,65.20
2022-11-16T22:18:50.054Z,64.60
2022-11-16T22:21:16.682Z,65.20
2022-11-16T22:23:43.321Z,65.20
2022-11-16T22:26:12.134Z,65.20
2022-11-16T22:28:39.315Z,65.10
2022-11-16T22:31:07.321Z,65.20
2022-11-16T22:33:34.988Z,65.10
2022-11-16T22:36:02.433Z,65.10
2022-11-16T22:38:29.077Z,65.00
2022-11-16T22:40:57.089Z,64.50
2022-11-16T22:43:28.908Z,65.10
2022-11-16T22:45:59.798Z,65.10
2022-11-16T22:48:37.472Z,65.10
2022-11-16T22:51:21.442Z,65.00
2022-11-16T22:53:51.989Z,65.00
2022-11-16T22:56:18.546Z,65.00
2022-11-16T22:58:45.176Z,65.00
2022-11-16T23:01:11.784Z,64.90
2022-11-16T23:03:38.975Z,64.90
2022-11-16T23:06:06.560Z,65.10
2022-11-16T23:08:34.342Z,64.90
2022-11-16T23:11:25.431Z,64.90
2022-11-16T23:14:12.537Z,64.90
2022-11-16T23:16:40.013Z,64.90
2022-11-16T23:19:27.806Z,64.90
2022-11-16T23:22:14.078Z,64.90
2022-11-16T23:24:59.300Z,64.90
2022-11-16T23:27:29.747Z,64.90
2022-11-16T23:30:01.783Z,64.90
2022-11-16T23:32:29.701Z,64.80
2022-11-16T23:34:56.379Z,64.90
2022-11-16T23:37:23.611Z,64.80
2022-11-16T23:39:50.260Z,64.80
2022-11-16T23:42:35.413Z,64.90
2022-11-16T23:45:02.354Z,64.80
2022-11-16T23:47:28.960Z,64.80
2022-11-16T23:49:55.556Z,65.50
2022-11-16T23:52:22.243Z,64.70
2022-11-16T23:54:48.861Z,64.70
2022-11-16T23:57:15.475Z,64.70
2022-11-16T23:59:42.060Z,65.40
